createdAt,value
2022-10-12T00:04:26.048Z,3.01
2022-10-12T00:09:29.019Z,2.96
2022-10-12T00:14:31.136Z,2.84
2022-10-12T00:19:33.283Z,2.79
2022-10-12T00:24:40.606Z,2.73
2022-10-12T00:29:44.675Z,2.74
2022-10-12T00:34:46.316Z,2.67
2022-10-12T00:39:49.614Z,2.63
2022-10-12T00:44:51.837Z,2.54
2022-10-12T00:49:58.009Z,2.44
2022-10-12T00:55:01.742Z,2.44
2022-10-12T01:00:06.766Z,2.45
2022-10-12T01:05:09.593Z,2.38
2022-10-12T01:10:13.495Z,2.33
2022-10-12T01:15:16.011Z,2.24
2022-10-12T01:20:34.534Z,2.25
2022-10-12T01:25:50.054Z,2.23
2022-10-12T01:30:59.520Z,2.22
2022-10-12T01:36:09.731Z,2.18
2022-10-12T01:41:18.285Z,2.14
2022-10-12T01:46:55.356Z,2.01
2022-10-12T01:52:32.111Z,1.89
2022-10-12T01:58:00.777Z,1.70
2022-10-12T02:03:16.097Z,1.61
2022-10-12T02:08:26.417Z,1.66
2022-10-12T02:13:35.883Z,1.64
2022-10-12T02:18:45.925Z,1.62
2022-10-12T02:23:53.756Z,1.54
2022-10-12T02:28:59.088Z,1.57
2022-10-12T02:34:12.055Z,1.49
2022-10-12T02:39:24.509Z,1.49
2022-10-12T02:44:32.809Z,1.41
2022-10-12T02:49:44.627Z,1.37
2022-10-12T02:54:49.382Z,1.49
2022-10-12T02:59:52.282Z,1.34
2022-10-12T03:04:55.573Z,1.27
2022-10-12T03:09:59.856Z,1.31
2022-10-12T03:15:05.572Z,1.28
2022-10-12T03:20:13.238Z,1.20
2022-10-12T03:25:18.859Z,1.09
2022-10-12T03:30:24.040Z,1.25
2022-10-12T03:35:27.687Z,1.25
2022-10-12T03:40:30.485Z,0.96
2022-10-12T03:45:32.787Z,1.01
2022-10-12T03:50:40.676Z,1.03
2022-10-12T03:55:44.983Z,1.07
2022-10-12T04:00:46.934Z,0.97
2022-10-12T04:05:54.781Z,1.10
2022-10-12T04:10:57.026Z,1.24
2022-10-12T04:16:02.270Z,1.31
2022-10-12T04:21:09.274Z,1.14
2022-10-12T04:26:11.259Z,0.97
2022-10-12T04:31:13.010Z,0.83
2022-10-12T04:36:16.289Z,0.71
2022-10-12T04:41:18.289Z,0.66
2022-10-12T04:46:20.396Z,0.72
2022-10-12T04:51:23.838Z,0.77
2022-10-12T04:56:26.143Z,0.72
2022-10-12T05:01:28.201Z,0.73
2022-10-12T05:06:31.594Z,0.76
2022-10-12T05:11:33.232Z,0.68
2022-10-12T05:16:34.905Z,0.74
2022-10-12T05:21:37.904Z,0.66
2022-10-12T05:26:40.281Z,0.66
2022-10-12T05:31:41.961Z,0.55
2022-10-12T05:36:45.363Z,0.54
2022-10-12T05:41:47.398Z,0.72
2022-10-12T05:46:49.083Z,0.72
2022-10-12T05:51:52.475Z,0.78
2022-10-12T05:56:54.544Z,0.79
2022-10-12T06:01:56.308Z,0.98
2022-10-12T06:06:59.685Z,1.03
2022-10-12T06:12:01.441Z,1.14
2022-10-12T06:17:03.488Z,1.15
2022-10-12T06:22:07.600Z,1.34
2022-10-12T06:27:09.658Z,1.46
2022-10-12T06:32:11.506Z,1.62
2022-10-12T06:37:37.067Z,1.79
2022-10-12T06:42:36.426Z,2.12
2022-10-12T06:47:38.365Z,2.39
2022-10-12T06:52:41.464Z,2.65
2022-10-12T06:57:43.206Z,3.04
2022-10-12T07:02:45.143Z,3.44
2022-10-12T07:07:48.090Z,3.86
2022-10-12T07:12:49.702Z,4.28
2022-10-12T07:17:51.383Z,4.77
2022-10-12T07:22:54.365Z,5.15
2022-10-12T07:27:56.264Z,5.38
2022-10-12T07:32:58.340Z,5.56
2022-10-12T07:38:01.681Z,5.88
2022-10-12T07:43:15.776Z,6.17
2022-10-12T07:48:18.101Z,6.39
2022-10-12T07:53:21.559Z,6.73
2022-10-12T07:58:23.295Z,7.01
2022-10-12T08:03:24.935Z,7.33
2022-10-12T08:08:27.911Z,7.59
2022-10-12T08:13:30.108Z,7.90
2022-10-12T08:18:32.123Z,8.17
2022-10-12T08:23:36.819Z,8.49
2022-10-12T08:28:39.003Z,8.89
2022-10-12T08:33:41.246Z,9.17
2022-10-12T08:38:44.458Z,9.47
2022-10-12T08:44:02.607Z,9.78
2022-10-12T08:49:08.580Z,10.09
2022-10-12T08:54:14.279Z,10.38
2022-10-12T08:59:19.086Z,10.67
2022-10-12T09:04:40.456Z,11.07
2022-10-12T09:09:56.410Z,11.52
2022-10-12T09:15:02.193Z,11.86
2022-10-12T09:20:10.929Z,12.22
2022-10-12T09:25:15.618Z,12.48
2022-10-12T09:30:20.132Z,12.71
2022-10-12T09:35:22.570Z,13.11
2022-10-12T09:40:28.970Z,13.76
2022-10-12T09:45:33.293Z,14.13
2022-10-12T09:50:40.423Z,18.04
2022-10-12T09:55:53.578Z,20.91
2022-10-12T10:01:18.576Z,24.67
2022-10-12T10:06:24.797Z,24.73
2022-10-12T10:11:29.038Z,25.92
2022-10-12T10:16:31.003Z,25.94
2022-10-12T10:21:35.037Z,24.42
2022-10-12T10:26:55.048Z,25.05
2022-10-12T10:32:08.479Z,25.90
2022-10-12T10:37:17.182Z,26.81
2022-10-12T10:42:25.617Z,25.00
2022-10-12T10:47:29.114Z,25.78
2022-10-12T10:52:33.379Z,23.70
2022-10-12T10:57:40.310Z,25.28
2022-10-12T11:02:48.860Z,24.18
2022-10-12T11:07:53.848Z,20.74
2022-10-12T11:13:03.189Z,19.83
2022-10-12T11:18:14.115Z,19.27
2022-10-12T11:23:24.919Z,17.34
2022-10-12T11:28:30.998Z,17.04
2022-10-12T11:33:36.891Z,17.77
2022-10-12T11:38:42.372Z,17.29
2022-10-12T11:43:51.213Z,16.73
2022-10-12T11:48:58.460Z,16.96
2022-10-12T11:54:08.774Z,16.66
2022-10-12T11:59:19.180Z,17.52
2022-10-12T12:04:41.643Z,18.09
2022-10-12T12:09:50.116Z,17.89
2022-10-12T12:15:22.164Z,17.44
2022-10-12T12:21:01.654Z,16.61
2022-10-12T12:26:23.348Z,17.27
2022-10-12T12:31:28.148Z,17.79
2022-10-12T12:36:33.465Z,17.39
2022-10-12T12:41:55.126Z,17.89
2022-10-12T12:52:40.094Z,17.79
2022-10-12T12:58:01.153Z,17.12
2022-10-12T13:03:44.625Z,17.35
2022-10-12T13:09:01.824Z,17.42
2022-10-12T13:14:19.639Z,17.55
2022-10-12T13:19:24.348Z,17.65
2022-10-12T13:24:30.043Z,17.71
2022-10-12T13:29:36.351Z,17.70
2022-10-12T13:34:43.615Z,17.63
2022-10-12T13:39:46.118Z,17.47
2022-10-12T13:44:48.878Z,17.27
2022-10-12T13:49:52.489Z,17.49
2022-10-12T13:54:54.676Z,17.56
2022-10-12T13:59:59.145Z,17.73
2022-10-12T14:05:04.045Z,17.73
2022-10-12T14:10:08.927Z,17.63
2022-10-12T14:15:13.943Z,17.62
2022-10-12T14:20:27.013Z,17.80
2022-10-12T14:25:30.434Z,16.92
2022-10-12T14:30:35.114Z,17.07
2022-10-12T14:35:39.784Z,17.35
2022-10-12T14:40:42.248Z,17.28
2022-10-12T14:45:44.535Z,17.15
2022-10-12T14:50:47.852Z,16.98
2022-10-12T14:55:53.781Z,16.57
2022-10-12T15:00:57.561Z,16.72
2022-10-12T15:06:02.949Z,16.24
2022-10-12T15:11:05.106Z,16.00
2022-10-12T15:16:18.583Z,15.83
2022-10-12T15:21:22.202Z,15.68
2022-10-12T15:26:24.497Z,15.40
2022-10-12T15:31:26.180Z,15.18
2022-10-12T15:36:29.755Z,14.97
2022-10-12T15:41:32.394Z,14.59
2022-10-12T15:46:34.144Z,14.25
2022-10-12T15:51:40.521Z,13.89
2022-10-12T15:56:42.655Z,13.51
2022-10-12T16:01:44.576Z,13.25
2022-10-12T16:06:47.912Z,12.98
2022-10-12T16:11:50.189Z,12.68
2022-10-12T16:16:51.908Z,12.08
2022-10-12T16:21:55.418Z,11.64
2022-10-12T16:26:57.475Z,11.30
2022-10-12T16:31:59.480Z,11.01
2022-10-12T16:37:02.915Z,10.63
2022-10-12T16:42:05.039Z,10.32
2022-10-12T16:47:06.706Z,10.08
2022-10-12T16:52:09.693Z,9.86
2022-10-12T16:57:11.506Z,9.66
2022-10-12T17:02:14.434Z,9.49
2022-10-12T17:07:17.766Z,9.34
2022-10-12T17:12:20.096Z,9.20
2022-10-12T17:17:22.206Z,9.03
2022-10-12T17:22:25.737Z,8.84
2022-10-12T17:27:32.084Z,8.65
2022-10-12T17:32:34.002Z,8.67
2022-10-12T17:37:37.475Z,9.03
2022-10-12T17:42:39.371Z,9.24
2022-10-12T17:47:41.247Z,9.24
2022-10-12T17:52:44.573Z,9.22
2022-10-12T17:57:46.401Z,9.09
2022-10-12T18:02:48.290Z,8.92
2022-10-12T18:07:51.908Z,8.77
2022-10-12T18:12:54.427Z,8.62
2022-10-12T18:17:59.784Z,8.50
2022-10-12T18:23:02.878Z,8.46
2022-10-12T18:28:05.159Z,8.40
2022-10-12T18:33:07.180Z,8.28
2022-10-12T18:38:11.026Z,7.99
2022-10-12T18:43:14.108Z,7.77
2022-10-12T18:48:15.942Z,7.72
2022-10-12T18:53:19.248Z,7.65
2022-10-12T18:58:21.385Z,7.51
2022-10-12T19:03:24.506Z,7.38
2022-10-12T19:08:28.996Z,7.26
2022-10-12T19:13:31.118Z,7.12
2022-10-12T19:18:33.326Z,7.01
2022-10-12T19:23:37.632Z,6.89
2022-10-12T19:28:41.172Z,6.75
2022-10-12T19:33:43.701Z,6.67
2022-10-12T19:38:47.457Z,6.56
2022-10-12T19:43:49.739Z,6.46
2022-10-12T19:48:53.259Z,6.31
2022-10-12T19:53:58.581Z,6.21
2022-10-12T19:59:00.319Z,6.13
2022-10-12T20:04:04.337Z,5.98
2022-10-12T20:09:08.342Z,5.89
2022-10-12T20:14:10.921Z,5.76
2022-10-12T20:19:12.622Z,5.79
2022-10-12T20:24:16.010Z,5.69
2022-10-12T20:29:18.674Z,5.62
2022-10-12T20:34:20.614Z,5.56
2022-10-12T20:39:23.766Z,5.42
2022-10-12T20:44:26.504Z,5.30
2022-10-12T20:49:28.621Z,5.24
2022-10-12T20:54:31.687Z,5.18
2022-10-12T20:59:33.885Z,5.03
2022-10-12T21:04:38.385Z,5.09
2022-10-12T21:09:41.900Z,5.07
2022-10-12T21:14:43.585Z,4.84
2022-10-12T21:19:45.478Z,4.86
2022-10-12T21:24:48.500Z,4.75
2022-10-12T21:29:50.671Z,4.67
2022-10-12T21:34:52.344Z,4.54
2022-10-12T21:39:55.554Z,4.40
2022-10-12T21:44:57.736Z,4.26
2022-10-12T21:49:59.683Z,4.29
2022-10-12T21:55:03.324Z,4.17
2022-10-12T22:00:06.065Z,4.26
2022-10-12T22:05:08.321Z,4.11
2022-10-12T22:10:12.308Z,4.04
2022-10-12T22:15:14.125Z,4.04
2022-10-12T22:20:16.196Z,3.97
2022-10-12T22:25:19.864Z,3.94
2022-10-12T22:30:22.088Z,3.88
2022-10-12T22:35:24.345Z,3.77
2022-10-12T22:40:27.735Z,3.71
2022-10-12T22:45:31.039Z,3.65
2022-10-12T22:50:33.666Z,3.67
2022-10-12T22:55:37.086Z,3.70
2022-10-12T23:00:39.580Z,3.52
2022-10-12T23:05:48.694Z,3.47
2022-10-12T23:10:52.276Z,3.45
2022-10-12T23:15:54.425Z,3.36
2022-10-12T23:20:56.553Z,3.29
2022-10-12T23:26:00.584Z,3.21
2022-10-12T23:31:03.149Z,3.15
2022-10-12T23:36:07.350Z,3.15
2022-10-12T23:41:12.211Z,3.07
2022-10-12T23:46:14.405Z,3.18
2022-10-12T23:51:16.705Z,3.04
2022-10-12T23:56:20.747Z,3.11
